Time;durP1;ratioP1;P1;durP2;ratioP2;P2;SDS_P1;SDS_P2;PMS_P1;PMS_P2;Temp;Humidity;BMP_temperature;BMP_pressure;BME280_temperature;BME280_humidity;BME280_pressure;Samples;Min_cycle;Max_cycle;Signal;HPM_P1;HPM_P2
2022/11/09 00:01:13;;;;;;;;;;;;;;;9.71;69.67;100434.28;5088069;28;19920;-82
2022/11/09 00:03:38;;;;;;;;;;;;;;;9.66;69.21;100436.91;5088377;28;20389;-82
2022/11/09 00:06:03;;;;;;;;;;;;;;;9.67;69.32;100436.03;5088678;28;19927;-82
2022/11/09 00:08:29;;;;;;;;;;;;;;;9.59;69.41;100445.66;5088691;28;19919;-82
2022/11/09 00:10:54;;;;;;;;;;;;;;;9.49;69.98;100424.59;5088576;28;19923;-84
2022/11/09 00:13:19;;;;;;;;;;;;;;;9.63;70.22;100450.94;5088190;28;20019;-82
2022/11/09 00:15:45;;;;;;;;;;;;;;;9.53;70.11;100456.19;5088614;28;19980;-82
2022/11/09 00:18:10;;;;;;;;;;;;;;;9.38;71.05;100443.91;5087454;28;19938;-82
2022/11/09 00:20:35;;;;;;;;;;;;;;;9.43;70.72;100450.03;5088578;28;20377;-82
2022/11/09 00:23:00;;;;;;;;;;;;;;;9.62;70.36;100448.31;5088091;28;19920;-82
2022/11/09 00:25:26;;;;;;;;;;;;;;;9.42;71.12;100443.91;5088237;28;20010;-82
2022/11/09 00:27:51;;;;;;;;;;;;;;;9.38;70.87;100442.13;5088461;28;19919;-82
2022/11/09 00:30:17;;;;;;;;;;;;;;;9.19;71.65;100427.16;5087700;28;19920;-82
2022/11/09 00:32:43;;;;;;;;;;;;;;;9.22;70.77;100450.88;5088137;28;19927;-82
2022/11/09 00:35:08;;;;;;;;;;;;;;;8.68;69.67;100458.56;5088344;28;19912;-82
2022/11/09 00:37:34;;;;;;;;;;;;;;;8.59;70.49;100446.25;5088052;28;19916;-81
2022/11/09 00:39:59;;;;;;;;;;;;;;;8.62;70.02;100456.78;5087377;28;20018;-82
2022/11/09 00:42:24;;;;;;;;;;;;;;;8.53;71.35;100459.38;5088105;28;19920;-82
2022/11/09 00:44:50;;;;;;;;;;;;;;;8.59;71.25;100452.38;5087815;28;19961;-81
2022/11/09 00:47:15;;;;;;;;;;;;;;;8.83;70.98;100445.47;5087399;28;20446;-82
2022/11/09 00:49:40;;;;;;;;;;;;;;;8.72;70.69;100441.94;5087902;28;19915;-82
2022/11/09 00:52:05;;;;;;;;;;;;;;;8.70;71.08;100443.69;5087632;28;19912;-82
2022/11/09 00:54:31;;;;;;;;;;;;;;;8.93;70.54;100443.78;5086631;28;19938;-82
2022/11/09 00:56:56;;;;;;;;;;;;;;;9.04;70.03;100443.81;5087853;28;19920;-82
2022/11/09 00:59:21;;;;;;;;;;;;;;;9.09;70.43;100432.41;5086855;28;19961;-82
2022/11/09 01:01:47;;;;;;;;;;;;;;;9.10;70.38;100441.19;5088038;28;19927;-82
2022/11/09 01:04:12;;;;;;;;;;;;;;;9.02;71.55;100437.66;5087103;28;19920;-82
2022/11/09 01:06:37;;;;;;;;;;;;;;;8.98;71.91;100438.53;5087674;28;19919;-82
2022/11/09 01:09:02;;;;;;;;;;;;;;;9.03;72.11;100437.66;5087233;28;20297;-82
2022/11/09 01:11:28;;;;;;;;;;;;;;;9.00;73.28;100431.50;5088004;28;19916;-82
2022/11/09 01:13:53;;;;;;;;;;;;;;;9.06;72.82;100431.53;5087586;28;19994;-82
2022/11/09 01:16:20;;;;;;;;;;;;;;;9.20;72.38;100432.44;5087235;28;20011;-82
2022/11/09 01:18:45;;;;;;;;;;;;;;;9.40;71.79;100432.47;5086959;28;19923;-82
2022/11/09 01:21:11;;;;;;;;;;;;;;;9.31;72.40;100432.47;5087917;28;19916;-82
2022/11/09 01:23:37;;;;;;;;;;;;;;;9.32;71.71;100432.47;5087361;28;19916;-81
2022/11/09 01:26:03;;;;;;;;;;;;;;;9.21;72.30;100438.59;5086947;28;19920;-83
2022/11/09 01:28:29;;;;;;;;;;;;;;;9.19;71.95;100440.31;5087242;28;20363;-82
2022/11/09 01:30:54;;;;;;;;;;;;;;;9.20;71.50;100432.44;5087219;28;19969;-82
2022/11/09 01:33:20;;;;;;;;;;;;;;;9.09;71.16;100434.16;5087298;28;19920;-82
2022/11/09 01:35:45;;;;;;;;;;;;;;;8.99;70.71;100435.91;5086615;28;20321;-82
2022/11/09 01:38:10;;;;;;;;;;;;;;;9.06;71.20;100431.53;5086989;28;19916;-83
2022/11/09 01:40:36;;;;;;;;;;;;;;;8.93;71.10;100431.50;5087569;28;20320;-82
2022/11/09 01:43:06;;;;;;;;;;;;;;;8.92;69.93;100439.38;5087078;28;20385;-82
2022/11/09 01:45:32;;;;;;;;;;;;;;;8.97;69.97;100432.38;5085417;28;20333;-84
2022/11/09 01:48:10;;;;;;;;;;;;;;;8.73;68.87;100434.03;5086931;28;19988;-82
2022/11/09 01:50:42;;;;;;;;;;;;;;;8.60;69.49;100432.22;5087242;28;19927;-82
2022/11/09 01:53:10;;;;;;;;;;;;;;;8.71;69.59;100434.91;5087597;28;19916;-82
2022/11/09 01:55:35;;;;;;;;;;;;;;;8.71;69.69;100434.91;5086836;28;19955;-82
2022/11/09 01:58:09;;;;;;;;;;;;;;;8.71;69.78;100437.53;5085573;28;19974;-82
2022/11/09 02:00:37;;;;;;;;;;;;;;;8.58;69.50;100439.22;5086672;28;19973;-82
2022/11/09 02:03:11;;;;;;;;;;;;;;;8.64;69.84;100435.75;5087077;28;19990;-82
2022/11/09 02:05:38;;;;;;;;;;;;;;;8.51;69.89;100445.31;5087279;28;20397;-81
2022/11/09 02:08:05;;;;;;;;;;;;;;;8.54;69.57;100438.34;5086621;28;19978;-82
2022/11/09 02:10:42;;;;;;;;;;;;;;;8.51;69.94;100442.69;5087518;28;19920;-82
2022/11/09 02:13:09;;;;;;;;;;;;;;;8.55;69.45;100439.22;5087401;28;19927;-82
2022/11/09 02:15:35;;;;;;;;;;;;;;;8.52;70.15;100439.19;5086499;28;19918;-82
2022/11/09 02:18:01;;;;;;;;;;;;;;;8.66;69.19;100442.75;5086800;28;19916;-82
2022/11/09 02:20:27;;;;;;;;;;;;;;;8.68;69.62;100445.41;5087015;28;19959;-82
2022/11/09 02:22:52;;;;;;;;;;;;;;;8.68;68.94;100448.94;5086743;28;20373;-83
2022/11/09 02:25:18;;;;;;;;;;;;;;;8.62;69.35;100441.00;5086773;28;19927;-82
2022/11/09 02:27:44;;;;;;;;;;;;;;;8.59;69.67;100451.53;5086575;28;19942;-82
2022/11/09 02:30:09;;;;;;;;;;;;;;;8.64;69.96;100454.16;5086716;28;19923;-82
2022/11/09 02:32:35;;;;;;;;;;;;;;;8.54;70.42;100456.75;5086824;28;19943;-83
2022/11/09 02:35:00;;;;;;;;;;;;;;;8.48;70.58;100459.34;5085746;28;20374;-82
2022/11/09 02:37:26;;;;;;;;;;;;;;;8.63;70.54;100460.28;5086503;28;19916;-81
2022/11/09 02:39:52;;;;;;;;;;;;;;;8.58;70.83;100458.50;5086892;28;19916;-82
2022/11/09 02:42:18;;;;;;;;;;;;;;;8.59;71.30;100460.28;5090125;28;20672;-82
2022/11/09 02:44:46;;;;;;;;;;;;;;;8.48;70.79;100463.72;5089961;28;19912;-82
2022/11/09 02:47:12;;;;;;;;;;;;;;;8.33;70.30;100462.72;5088523;28;20363;-82
2022/11/09 02:49:37;;;;;;;;;;;;;;;8.32;70.76;100463.56;5090275;28;20069;-82
2022/11/09 02:52:02;;;;;;;;;;;;;;;8.47;70.83;100464.59;5090221;28;20475;-81
2022/11/09 02:54:28;;;;;;;;;;;;;;;8.35;70.34;100453.09;5090034;28;20012;-81
2022/11/09 02:56:53;;;;;;;;;;;;;;;8.36;71.02;100470.63;5089895;28;20016;-81
2022/11/09 02:59:19;;;;;;;;;;;;;;;8.30;69.82;100473.22;5090373;28;20015;-82
2022/11/09 03:01:44;;;;;;;;;;;;;;;8.20;69.35;100466.13;5089714;28;20370;-81
2022/11/09 03:04:09;;;;;;;;;;;;;;;8.09;69.36;100467.81;5089804;28;19916;-81
2022/11/09 03:06:35;;;;;;;;;;;;;;;8.03;69.34;100460.75;5089896;28;19919;-82
2022/11/09 03:09:05;;;;;;;;;;;;;;;8.05;68.18;100475.66;5089842;28;19916;-82
2022/11/09 03:11:30;;;;;;;;;;;;;;;7.95;68.12;100470.31;5089732;28;19927;-82
2022/11/09 03:13:55;;;;;;;;;;;;;;;7.90;68.35;100472.91;5090015;28;19916;-82
2022/11/09 03:16:21;;;;;;;;;;;;;;;7.85;68.71;100466.75;5089485;28;20290;-82
2022/11/09 03:18:46;;;;;;;;;;;;;;;7.87;69.69;100476.38;5088858;28;19920;-82
2022/11/09 03:21:11;;;;;;;;;;;;;;;7.84;69.60;100476.34;5089280;28;19969;-82
2022/11/09 03:23:36;;;;;;;;;;;;;;;7.87;69.92;100480.78;5089538;28;19923;-82
2022/11/09 03:26:02;;;;;;;;;;;;;;;7.77;70.49;100468.41;5089705;28;19927;-83
2022/11/09 03:28:27;;;;;;;;;;;;;;;7.78;70.99;100472.81;5089125;28;20003;-81
2022/11/09 03:30:52;;;;;;;;;;;;;;;7.97;71.34;100473.84;5089582;28;19993;-82
2022/11/09 03:33:18;;;;;;;;;;;;;;;8.08;70.87;100480.06;5089155;28;20400;-82
2022/11/09 03:35:43;;;;;;;;;;;;;;;7.90;71.52;100478.16;5089448;28;20652;-82
2022/11/09 03:38:08;;;;;;;;;;;;;;;7.80;71.29;100474.59;5089155;28;19916;-81
2022/11/09 03:40:34;;;;;;;;;;;;;;;7.80;71.61;100484.19;5089191;28;20461;-81
2022/11/09 03:42:59;;;;;;;;;;;;;;;7.94;71.30;100489.56;5089841;28;20382;-81
2022/11/09 03:45:26;;;;;;;;;;;;;;;7.98;70.85;100481.72;5089201;28;19923;-81
2022/11/09 03:47:53;;;;;;;;;;;;;;;7.97;70.91;100481.72;5088570;28;20415;-81
2022/11/09 03:50:19;;;;;;;;;;;;;;;7.98;71.05;100476.47;5089109;28;19922;-82
2022/11/09 03:52:45;;;;;;;;;;;;;;;7.95;70.43;100478.22;5088607;28;19911;-81
2022/11/09 03:55:10;;;;;;;;;;;;;;;7.94;70.99;100476.44;5088307;28;19977;-81
2022/11/09 03:57:35;;;;;;;;;;;;;;;7.88;70.53;100477.28;5089099;28;20347;-82
2022/11/09 04:00:01;;;;;;;;;;;;;;;7.84;71.08;100472.88;5089168;28;20419;-82
2022/11/09 04:02:26;;;;;;;;;;;;;;;7.84;71.29;100465.84;5071229;28;19920;-81
2022/11/09 04:04:52;;;;;;;;;;;;;;;7.90;71.14;100475.53;5070779;28;20003;-81
2022/11/09 04:07:17;;;;;;;;;;;;;;;7.93;71.85;100480.81;5087363;28;19924;-82
2022/11/09 04:09:42;;;;;;;;;;;;;;;7.96;71.49;100472.97;5081416;28;20383;-81
2022/11/09 04:12:07;;;;;;;;;;;;;;;8.03;71.53;100473.88;5088660;28;19919;-81
2022/11/09 04:14:33;;;;;;;;;;;;;;;7.97;71.79;100480.00;5070567;28;20646;-80
2022/11/09 04:16:58;;;;;;;;;;;;;;;7.81;72.17;100472.84;5075235;28;19920;-82
2022/11/09 04:19:23;;;;;;;;;;;;;;;7.81;71.15;100464.97;5067377;28;19922;-82
2022/11/09 04:21:49;;;;;;;;;;;;;;;7.52;71.71;100476.06;5068084;28;19923;-84
2022/11/09 04:24:14;;;;;;;;;;;;;;;7.56;71.32;100472.59;5079384;28;19916;-84
2022/11/09 04:26:39;;;;;;;;;;;;;;;7.47;72.21;100464.66;5080357;28;19924;-84
2022/11/09 04:29:05;;;;;;;;;;;;;;;7.13;72.51;100480.91;5075654;28;19987;-83
2022/11/09 04:31:30;;;;;;;;;;;;;;;7.11;72.64;100480.00;5085071;28;19916;-83
2022/11/09 04:33:55;;;;;;;;;;;;;;;6.79;73.15;100485.72;5067161;28;20408;-82
2022/11/09 04:36:21;;;;;;;;;;;;;;;6.85;73.72;100478.81;5067672;28;19920;-87
2022/11/09 04:38:46;;;;;;;;;;;;;;;6.88;74.59;100478.88;5086641;28;19920;-83
2022/11/09 04:41:11;;;;;;;;;;;;;;;6.77;75.00;100476.97;5082806;28;19969;-85
2022/11/09 04:43:37;;;;;;;;;;;;;;;6.89;75.16;100477.97;5082192;28;20001;-83
2022/11/09 04:46:02;;;;;;;;;;;;;;;6.91;76.30;100482.38;5084438;28;20333;-83
2022/11/09 04:48:28;;;;;;;;;;;;;;;6.95;77.05;100476.34;5083045;28;19945;-84
2022/11/09 04:51:00;;;;;;;;;;;;;;;7.05;77.38;100486.94;5077956;28;19922;-84
2022/11/09 04:53:26;;;;;;;;;;;;;;;7.21;76.88;100483.59;5083943;28;19941;-85
2022/11/09 04:55:51;;;;;;;;;;;;;;;7.35;76.46;100489.91;5084893;28;19974;-86
2022/11/09 04:58:16;;;;;;;;;;;;;;;7.41;75.69;100480.31;5083331;28;20414;-87
2022/11/09 05:00:41;;;;;;;;;;;;;;;7.34;76.12;100488.13;5083810;28;19962;-85
2022/11/09 05:03:07;;;;;;;;;;;;;;;7.41;76.16;100494.31;5076635;28;19943;-85
2022/11/09 05:05:33;;;;;;;;;;;;;;;7.35;76.41;100492.53;5064206;28;20412;-84
2022/11/09 05:07:59;;;;;;;;;;;;;;;7.24;77.28;100495.91;5066353;28;19924;-83
2022/11/09 05:10:24;;;;;;;;;;;;;;;7.32;76.85;100494.22;5081846;28;19923;-83
2022/11/09 05:12:49;;;;;;;;;;;;;;;7.32;77.26;100499.47;5080682;28;19920;-83
2022/11/09 05:15:15;;;;;;;;;;;;;;;7.31;77.24;100495.97;5063775;28;19912;-82
2022/11/09 05:17:40;;;;;;;;;;;;;;;7.56;77.11;100498.00;5069161;28;19917;-81
2022/11/09 05:20:05;;;;;;;;;;;;;;;7.67;76.71;100496.34;5079453;28;20015;-82
2022/11/09 05:25:16;;;;;;;;;;;;;;;7.75;77.18;100499.03;5073194;28;19916;-82
2022/11/09 05:27:41;;;;;;;;;;;;;;;7.82;77.43;100496.50;5079421;28;20392;-82
2022/11/09 05:30:07;;;;;;;;;;;;;;;7.89;77.41;100500.94;5077317;28;19924;-84
2022/11/09 05:32:34;;;;;;;;;;;;;;;8.04;77.48;100505.44;5087166;28;19966;-81
2022/11/09 05:34:59;;;;;;;;;;;;;;;8.32;76.96;100510.03;5085931;28;19916;-81
2022/11/09 05:37:25;;;;;;;;;;;;;;;8.42;76.26;100510.09;5087262;28;19923;-83
2022/11/09 05:39:50;;;;;;;;;;;;;;;8.44;76.43;100515.41;5086843;28;20369;-83
2022/11/09 05:42:15;;;;;;;;;;;;;;;8.34;77.52;100516.16;5086457;28;19985;-85
2022/11/09 05:44:41;;;;;;;;;;;;;;;8.42;77.70;100515.38;5087464;28;19923;-85
2022/11/09 05:47:06;;;;;;;;;;;;;;;8.40;77.20;100511.84;5087043;28;19974;-85
2022/11/09 05:49:31;;;;;;;;;;;;;;;8.31;77.49;100517.03;5085736;28;19959;-84
2022/11/09 05:51:57;;;;;;;;;;;;;;;8.24;78.17;100520.47;5087086;28;20072;-85
2022/11/09 05:54:22;;;;;;;;;;;;;;;8.37;78.67;100521.44;5087935;28;20006;-87
2022/11/09 05:56:47;;;;;;;;;;;;;;;8.50;77.30;100525.09;5076550;28;19917;-86
2022/11/09 05:59:12;;;;;;;;;;;;;;;8.51;78.15;100529.47;5066462;28;19920;-85
2022/11/09 06:01:38;;;;;;;;;;;;;;;8.48;78.06;100529.44;5085675;28;20358;-85
2022/11/09 06:04:03;;;;;;;;;;;;;;;8.67;78.27;100533.09;5084269;28;20935;-87
2022/11/09 06:06:28;;;;;;;;;;;;;;;8.70;78.59;100530.47;5082081;28;19920;-85
2022/11/09 06:08:54;;;;;;;;;;;;;;;8.91;77.42;100527.97;5077538;28;19916;-85
2022/11/09 06:11:19;;;;;;;;;;;;;;;9.00;77.78;100540.28;5073209;28;19951;-85
2022/11/09 06:13:44;;;;;;;;;;;;;;;9.23;77.41;100536.88;5073717;28;19916;-86
2022/11/09 06:16:10;;;;;;;;;;;;;;;9.37;77.16;100542.19;5083105;28;19920;-85
2022/11/09 06:18:36;;;;;;;;;;;;;;;9.45;76.64;100544.00;5086988;28;19958;-85
2022/11/09 06:21:02;;;;;;;;;;;;;;;9.71;76.07;100551.06;5073603;28;19978;-83
2022/11/09 06:23:29;;;;;;;;;;;;;;;9.94;76.84;100550.22;5082292;28;19927;-84
2022/11/09 06:25:58;;;;;;;;;;;;;;;10.06;76.88;100533.56;5090366;28;19926;-84
2022/11/09 06:28:23;;;;;;;;;;;;;;;10.29;77.16;100550.25;5083618;28;19985;-84
2022/11/09 06:30:48;;;;;;;;;;;;;;;10.67;75.92;100551.13;5090814;28;19916;-84
2022/11/09 06:33:14;;;;;;;;;;;;;;;10.74;75.33;100547.59;5090140;28;20320;-84
2022/11/09 06:35:39;;;;;;;;;;;;;;;10.86;75.09;100552.84;5090498;28;20006;-84
2022/11/09 06:38:05;;;;;;;;;;;;;;;10.90;74.83;100551.94;5089806;28;19963;-84
2022/11/09 06:40:30;;;;;;;;;;;;;;;11.07;74.71;100549.25;5090609;28;19969;-84
2022/11/09 06:42:59;;;;;;;;;;;;;;;11.24;73.97;100545.66;5090090;28;19927;-84
2022/11/09 06:45:25;;;;;;;;;;;;;;;11.36;73.95;100542.97;5089958;28;20739;-83
2022/11/09 06:47:53;;;;;;;;;;;;;;;11.48;73.69;100542.03;5089762;28;19916;-85
2022/11/09 06:50:19;;;;;;;;;;;;;;;11.64;73.05;100545.47;5089995;28;19916;-84
2022/11/09 06:52:44;;;;;;;;;;;;;;;11.74;72.34;100547.19;5089558;28;19923;-85
2022/11/09 06:55:09;;;;;;;;;;;;;;;11.76;72.05;100550.69;5090098;28;20292;-85
2022/11/09 06:57:35;;;;;;;;;;;;;;;11.84;71.73;100548.00;5090025;28;19915;-85
2022/11/09 07:00:00;;;;;;;;;;;;;;;11.67;71.57;100544.59;5090165;28;19968;-85
2022/11/09 07:02:25;;;;;;;;;;;;;;;11.63;72.65;100543.72;5090640;28;20301;-85
2022/11/09 07:04:51;;;;;;;;;;;;;;;11.70;72.31;100544.56;5090053;28;20715;-85
2022/11/09 07:07:16;;;;;;;;;;;;;;;11.52;71.95;100541.13;5089815;28;19919;-84
2022/11/09 07:09:41;;;;;;;;;;;;;;;11.62;72.07;100541.97;5090035;28;19919;-85
2022/11/09 07:12:07;;;;;;;;;;;;;;;11.61;71.89;100538.44;5089788;28;20759;-85
2022/11/09 07:14:33;;;;;;;;;;;;;;;11.83;71.94;100543.59;5089824;28;19916;-85
2022/11/09 07:16:58;;;;;;;;;;;;;;;12.11;71.08;100533.75;5089615;28;19916;-85
2022/11/09 07:19:23;;;;;;;;;;;;;;;12.22;70.52;100536.28;5089243;28;19912;-85
2022/11/09 07:21:48;;;;;;;;;;;;;;;12.46;68.57;100534.31;5088804;28;19966;-84
2022/11/09 07:24:14;;;;;;;;;;;;;;;12.57;67.54;100531.56;5089805;28;19912;-84
2022/11/09 07:26:39;;;;;;;;;;;;;;;12.78;67.14;100536.63;5089223;28;19912;-84
2022/11/09 07:29:04;;;;;;;;;;;;;;;12.88;67.02;100530.34;5089576;28;19916;-85
2022/11/09 07:31:30;;;;;;;;;;;;;;;12.98;66.95;100536.41;5088331;28;20002;-85
2022/11/09 07:33:57;;;;;;;;;;;;;;;13.00;67.08;100531.09;5089531;28;20378;-84
2022/11/09 07:36:22;;;;;;;;;;;;;;;13.17;66.85;100528.25;5089741;28;19915;-84
2022/11/09 07:38:48;;;;;;;;;;;;;;;13.51;65.85;100536.66;5089276;28;19971;-85
2022/11/09 07:41:13;;;;;;;;;;;;;;;13.59;65.54;100534.81;5089041;28;19919;-85
2022/11/09 07:43:38;;;;;;;;;;;;;;;13.84;63.85;100528.25;5089426;28;19919;-85
2022/11/09 07:46:04;;;;;;;;;;;;;;;14.01;63.17;100534.19;5089119;28;19939;-85
2022/11/09 07:48:29;;;;;;;;;;;;;;;13.81;63.75;100533.59;5088830;28;19923;-84
2022/11/09 07:50:56;;;;;;;;;;;;;;;14.03;63.29;100535.03;5089709;28;20346;-85
2022/11/09 07:53:21;;;;;;;;;;;;;;;14.33;63.07;100543.38;5089163;28;19915;-85
2022/11/09 07:55:54;;;;;;;;;;;;;;;14.50;63.31;100535.13;5089232;28;20313;-85
2022/11/09 07:58:20;;;;;;;;;;;;;;;14.63;62.24;100541.13;5088948;28;20010;-84
2022/11/09 08:00:45;;;;;;;;;;;;;;;14.74;62.20;100540.94;5088861;28;20054;-84
2022/11/09 08:03:10;;;;;;;;;;;;;;;14.94;61.22;100545.88;5088561;28;19916;-84
2022/11/09 08:05:36;;;;;;;;;;;;;;;15.09;61.18;100534.94;5089035;28;19919;-85
2022/11/09 08:08:03;;;;;;;;;;;;;;;15.32;59.79;100529.16;5088990;28;19912;-86
2022/11/09 08:10:29;;;;;;;;;;;;;;;15.29;59.44;100534.53;5088609;28;20488;-85
2022/11/09 08:13:02;;;;;;;;;;;;;;;15.52;58.65;100534.03;5088823;28;20010;-85
2022/11/09 08:15:28;;;;;;;;;;;;;;;15.42;59.19;100535.13;5088678;28;19924;-85
2022/11/09 08:17:53;;;;;;;;;;;;;;;15.48;59.08;100534.13;5087695;28;19976;-84
2022/11/09 08:20:19;;;;;;;;;;;;;;;15.54;58.34;100531.34;5087752;28;20419;-83
2022/11/09 08:22:45;;;;;;;;;;;;;;;15.57;58.10;100531.28;5087713;28;19958;-85
2022/11/09 08:25:11;;;;;;;;;;;;;;;15.65;57.65;100525.78;5088157;28;19916;-84
2022/11/09 08:27:39;;;;;;;;;;;;;;;15.80;57.76;100536.09;5087801;28;19919;-84
2022/11/09 08:30:11;;;;;;;;;;;;;;;15.91;56.89;100534.06;5087973;28;19912;-83
2022/11/09 08:32:37;;;;;;;;;;;;;;;15.95;58.36;100532.19;5087998;28;19912;-83
2022/11/09 08:35:02;;;;;;;;;;;;;;;16.14;57.00;100535.28;5087717;28;19923;-84
2022/11/09 08:37:28;;;;;;;;;;;;;;;16.14;55.97;100529.09;5084213;28;19920;-85
2022/11/09 08:39:53;;;;;;;;;;;;;;;15.72;57.71;100527.38;5080060;28;20434;-85
2022/11/09 08:42:18;;;;;;;;;;;;;;;15.76;57.84;100521.94;5066669;28;19959;-83
2022/11/09 08:44:43;;;;;;;;;;;;;;;16.04;57.01;100526.66;5067323;28;19935;-83
2022/11/09 08:47:09;;;;;;;;;;;;;;;16.03;56.66;100526.69;5066762;28;20057;-83
2022/11/09 08:49:34;;;;;;;;;;;;;;;16.04;57.36;100526.66;5067359;28;20392;-85
2022/11/09 08:52:00;;;;;;;;;;;;;;;16.36;56.23;100526.75;5068086;28;19912;-85
2022/11/09 08:54:25;;;;;;;;;;;;;;;16.18;56.33;100528.09;5067658;28;19916;-83
2022/11/09 08:56:53;;;;;;;;;;;;;;;16.15;56.61;100529.03;5068124;28;19912;-83
2022/11/09 08:59:19;;;;;;;;;;;;;;;16.13;55.80;100525.56;5067402;28;20355;-83
2022/11/09 09:01:44;;;;;;;;;;;;;;;16.19;56.95;100530.72;5067880;28;20382;-83
2022/11/09 09:04:09;;;;;;;;;;;;;;;16.59;55.11;100529.69;5068061;28;19917;-83
2022/11/09 09:06:35;;;;;;;;;;;;;;;16.69;54.93;100521.47;5067516;28;19916;-83
2022/11/09 09:09:00;;;;;;;;;;;;;;;16.73;54.73;100525.78;5067625;28;19912;-84
2022/11/09 09:11:25;;;;;;;;;;;;;;;16.45;55.31;100530.06;5067479;28;20461;-83
2022/11/09 09:13:50;;;;;;;;;;;;;;;16.94;54.36;100524.34;5067080;28;19916;-83
2022/11/09 09:16:16;;;;;;;;;;;;;;;16.88;54.67;100520.06;5067114;28;19923;-83
2022/11/09 09:18:41;;;;;;;;;;;;;;;16.97;54.39;100527.78;5066257;28;20644;-83
2022/11/09 09:21:08;;;;;;;;;;;;;;;16.78;54.57;100521.22;5067404;28;19962;-83
2022/11/09 09:23:33;;;;;;;;;;;;;;;16.78;54.46;100518.56;5067556;28;19919;-83
2022/11/09 09:25:58;;;;;;;;;;;;;;;16.96;54.03;100506.50;5067615;28;19916;-83
2022/11/09 09:28:24;;;;;;;;;;;;;;;16.83;55.43;100512.16;5066635;28;21972;-84
2022/11/09 09:30:49;;;;;;;;;;;;;;;16.89;54.79;100507.63;5067526;28;20390;-83
2022/11/09 09:33:14;;;;;;;;;;;;;;;16.90;54.38;100502.25;5066821;28;19965;-83
2022/11/09 09:35:40;;;;;;;;;;;;;;;17.02;53.87;100500.16;5067166;28;19912;-83
2022/11/09 09:38:05;;;;;;;;;;;;;;;17.15;53.64;100498.88;5066695;28;19912;-83
2022/11/09 09:40:34;;;;;;;;;;;;;;;17.12;53.30;100494.50;5066748;28;19938;-82
2022/11/09 09:42:59;;;;;;;;;;;;;;;17.14;53.14;100487.31;5066640;28;19916;-83
2022/11/09 09:45:27;;;;;;;;;;;;;;;17.16;52.94;100484.63;5066349;28;20279;-83
2022/11/09 09:47:56;;;;;;;;;;;;;;;17.34;52.70;100483.19;5066016;28;20422;-83
2022/11/09 09:50:23;;;;;;;;;;;;;;;17.29;52.65;100483.34;5068913;28;19912;-84
2022/11/09 09:52:52;;;;;;;;;;;;;;;17.09;53.65;100475.06;5070706;28;19920;-83
2022/11/09 09:55:37;;;;;;;;;;;;;;;17.28;52.83;100470.06;5070640;28;19912;-83
2022/11/09 09:58:16;;;;;;;;;;;;;;;17.14;52.69;100473.13;5070081;28;19917;-85
2022/11/09 10:00:42;;;;;;;;;;;;;;;17.27;52.03;100458.53;5070460;28;20339;-84
2022/11/09 10:03:14;;;;;;;;;;;;;;;17.49;51.68;100460.53;5075741;28;19931;-84
2022/11/09 10:05:47;;;;;;;;;;;;;;;17.41;52.51;100455.44;5075279;28;19920;-84
2022/11/09 10:08:20;;;;;;;;;;;;;;;17.70;51.12;100457.16;5071339;28;19920;-84
2022/11/09 10:11:03;;;;;;;;;;;;;;;17.69;50.83;100457.22;5073596;28;19920;-86
2022/11/09 10:13:43;;;;;;;;;;;;;;;17.72;51.44;100451.78;5077445;28;19924;-84
2022/11/09 10:16:35;;;;;;;;;;;;;;;17.51;51.84;100448.88;5089567;28;20389;-84
2022/11/09 10:19:00;;;;;;;;;;;;;;;17.76;51.43;100441.88;5072670;28;19989;-86
2022/11/09 10:21:25;;;;;;;;;;;;;;;17.91;51.04;100440.53;5073105;28;19928;-86
2022/11/09 10:23:57;;;;;;;;;;;;;;;17.68;51.37;100445.66;5068692;28;20480;-85
2022/11/09 10:26:29;;;;;;;;;;;;;;;17.69;51.35;100442.06;5068320;28;19921;-85
2022/11/09 10:28:57;;;;;;;;;;;;;;;17.81;51.03;100435.47;5080367;28;19920;-85
2022/11/09 10:31:23;;;;;;;;;;;;;;;17.58;51.55;100436.22;5078522;28;19919;-86
2022/11/09 10:33:51;;;;;;;;;;;;;;;17.70;50.93;100435.81;5078200;28;20400;-86
2022/11/09 10:36:29;;;;;;;;;;;;;;;17.84;50.59;100429.13;5082552;28;20388;-86
2022/11/09 10:38:57;;;;;;;;;;;;;;;17.88;51.30;100426.34;5074730;28;19960;-88
2022/11/09 10:41:25;;;;;;;;;;;;;;;17.82;50.94;100429.19;5080060;28;20003;-90
2022/11/09 10:43:51;;;;;;;;;;;;;;;17.88;51.00;100422.78;5067884;28;19938;-91
2022/11/09 10:46:16;;;;;;;;;;;;;;;18.01;51.07;100418.81;5087525;28;19912;-90
2022/11/09 10:48:47;;;;;;;;;;;;;;;17.79;51.34;100413.28;5077758;28;19919;-91
2022/11/09 10:51:31;;;;;;;;;;;;;;;17.80;51.21;100415.03;5071135;28;20309;-94
2022/11/09 10:57:26;;;;;;;;;;;;;;;17.91;50.71;100409.38;5067677;28;19938;-90
2022/11/09 10:59:59;;;;;;;;;;;;;;;17.98;50.75;100404.69;5069411;28;19916;-91
2022/11/09 11:05:55;;;;;;;;;;;;;;;17.93;50.71;100401.31;5068034;28;20035;-92
2022/11/09 11:08:40;;;;;;;;;;;;;;;17.97;50.70;100397.63;5067873;28;19923;-94
2022/11/09 11:11:43;;;;;;;;;;;;;;;17.82;50.74;100390.97;5068565;28;19916;-94
2022/11/09 11:14:14;;;;;;;;;;;;;;;17.98;50.46;100388.66;5055461;28;19916;-90
2022/11/09 11:16:41;;;;;;;;;;;;;;;18.38;49.89;100388.16;5068132;28;19916;-90
2022/11/09 11:19:25;;;;;;;;;;;;;;;18.39;49.56;100379.19;5068757;28;19927;-89
2022/11/09 11:22:09;;;;;;;;;;;;;;;18.24;49.62;100390.44;5068026;28;20009;-89
2022/11/09 11:25:00;;;;;;;;;;;;;;;18.03;50.29;100381.41;5069492;28;19923;-89
2022/11/09 11:27:31;;;;;;;;;;;;;;;18.31;50.09;100373.28;5064149;28;19920;-88
2022/11/09 11:30:03;;;;;;;;;;;;;;;18.31;49.52;100370.59;5069175;28;19923;-87
2022/11/09 11:32:29;;;;;;;;;;;;;;;18.55;48.77;100367.94;5068652;28;19916;-86
2022/11/09 11:34:54;;;;;;;;;;;;;;;18.35;49.59;100366.91;5066673;28;19919;-85
2022/11/09 11:37:36;;;;;;;;;;;;;;;18.38;49.59;100365.91;5068835;28;19916;-84
2022/11/09 11:40:01;;;;;;;;;;;;;;;18.36;50.15;100360.59;5068595;28;19947;-85
2022/11/09 11:42:37;;;;;;;;;;;;;;;18.52;49.25;100357.38;5076636;28;19963;-85
2022/11/09 11:45:13;;;;;;;;;;;;;;;18.41;49.37;100352.44;5087249;28;20449;-85
2022/11/09 11:47:48;;;;;;;;;;;;;;;18.50;48.91;100357.44;5088171;28;19955;-85
2022/11/09 11:50:16;;;;;;;;;;;;;;;18.67;48.93;100350.59;5086657;28;19919;-86
2022/11/09 11:53:00;;;;;;;;;;;;;;;18.80;48.25;100349.19;5088323;28;19923;-87
2022/11/09 11:55:45;;;;;;;;;;;;;;;18.78;48.05;100343.91;5088754;28;19916;-85
2022/11/09 11:58:19;;;;;;;;;;;;;;;18.69;48.83;100340.69;5088288;28;19923;-85
2022/11/09 12:01:02;;;;;;;;;;;;;;;18.74;48.96;100339.59;5088121;28;19938;-86
2022/11/09 12:03:33;;;;;;;;;;;;;;;18.81;48.68;100336.69;5088319;28;19926;-85
2022/11/09 12:06:01;;;;;;;;;;;;;;;18.83;48.26;100330.38;5087122;28;20282;-85
2022/11/09 12:08:30;;;;;;;;;;;;;;;18.70;48.49;100323.75;5088572;28;19916;-86
2022/11/09 12:11:18;;;;;;;;;;;;;;;18.34;49.53;100324.22;5086779;28;20016;-85
2022/11/09 12:14:04;;;;;;;;;;;;;;;18.63;49.14;100325.81;5087394;28;19916;-86
2022/11/09 12:16:43;;;;;;;;;;;;;;;18.68;48.78;100315.78;5087951;28;20381;-85
2022/11/09 12:19:08;;;;;;;;;;;;;;;18.49;49.52;100326.31;5087815;28;19973;-85
2022/11/09 12:21:48;;;;;;;;;;;;;;;18.66;49.25;100316.78;5086681;28;19920;-86
2022/11/09 12:24:13;;;;;;;;;;;;;;;18.70;49.15;100321.94;5087905;28;19956;-85
2022/11/09 12:26:49;;;;;;;;;;;;;;;18.72;48.93;100314.75;5087813;28;19962;-83
2022/11/09 12:29:24;;;;;;;;;;;;;;;18.81;48.46;100318.00;5088231;28;19912;-87
2022/11/09 12:32:05;;;;;;;;;;;;;;;18.82;48.88;100309.06;5086500;28;19916;-85
2022/11/09 12:34:35;;;;;;;;;;;;;;;18.91;48.31;100309.56;5087686;28;19923;-88
2022/11/09 12:37:03;;;;;;;;;;;;;;;19.06;48.81;100308.09;5086586;28;19912;-83
2022/11/09 12:39:31;;;;;;;;;;;;;;;19.04;48.39;100301.94;5087878;28;20740;-86
2022/11/09 12:42:00;;;;;;;;;;;;;;;19.01;48.28;100307.41;5087401;28;20381;-86
2022/11/09 12:44:52;;;;;;;;;;;;;;;18.94;48.78;100306.78;5087661;28;19922;-88
2022/11/09 12:47:25;;;;;;;;;;;;;;;19.16;48.25;100303.25;5081997;28;19923;-87
2022/11/09 12:49:53;;;;;;;;;;;;;;;19.03;48.12;100302.00;5087379;28;20080;-88
2022/11/09 12:52:25;;;;;;;;;;;;;;;18.71;48.80;100299.66;5087360;28;19912;-92
2022/11/09 12:54:53;;;;;;;;;;;;;;;18.70;48.83;100299.69;5087052;28;20866;-87